Time;durP1;ratioP1;P1;durP2;ratioP2;P2;SDS_P1;SDS_P2;PMS_P1;PMS_P2;Temp;Humidity;BMP_temperature;BMP_pressure;BME280_temperature;BME280_humidity;BME280_pressure;Samples;Min_cycle;Max_cycle;Signal;HPM_P1;HPM_P2
2021/08/08 00:02:31;;;;;;;1.63;1.37;;;17.40;99.90;;;;;;9734765;30;20607;-86
2021/08/08 00:07:34;;;;;;;1.47;1.37;;;17.50;99.90;;;;;;9757663;30;20589;-86
2021/08/08 00:12:38;;;;;;;2.70;1.60;;;17.50;99.90;;;;;;9764223;30;20225;-86
2021/08/08 00:17:40;;;;;;;2.83;1.73;;;17.50;99.90;;;;;;9748070;30;20366;-86
2021/08/08 00:22:44;;;;;;;3.67;1.53;;;17.50;99.90;;;;;;9733151;30;20799;-86
2021/08/08 00:27:46;;;;;;;3.07;1.70;;;17.50;99.90;;;;;;9732904;30;20275;-86
2021/08/08 00:32:48;;;;;;;3.10;1.67;;;17.50;99.90;;;;;;9732866;30;20295;-86
2021/08/08 00:38:03;;;;;;;1.73;1.63;;;17.50;99.90;;;;;;9746208;30;20697;-86
2021/08/08 00:43:10;;;;;;;6.00;2.00;;;17.50;99.90;;;;;;9732366;30;20238;-86
2021/08/08 00:48:13;;;;;;;4.00;1.67;;;17.50;99.90;;;;;;9732488;30;20234;-86
2021/08/08 00:53:19;;;;;;;2.00;1.80;;;17.50;99.90;;;;;;9732028;30;20245;-86
2021/08/08 00:58:26;;;;;;;1.80;1.70;;;17.60;99.90;;;;;;9731272;30;20260;-86
2021/08/08 01:03:32;;;;;;;3.87;1.80;;;17.60;99.90;;;;;;9742489;30;20387;-86
2021/08/08 01:08:47;;;;;;;2.00;1.60;;;17.60;99.90;;;;;;9732286;30;20209;-86
2021/08/08 01:13:51;;;;;;;6.10;1.77;;;17.60;99.90;;;;;;9756437;30;20620;-86
2021/08/08 01:18:55;;;;;;;1.80;1.40;;;17.60;99.90;;;;;;9731512;30;20257;-86
2021/08/08 01:24:00;;;;;;;3.73;1.40;;;17.60;99.90;;;;;;9731012;30;20671;-86
2021/08/08 01:29:04;;;;;;;2.30;1.50;;;17.50;99.90;;;;;;9745704;30;20237;-86
2021/08/08 01:34:06;;;;;;;1.70;1.60;;;17.50;99.90;;;;;;9730928;30;20229;-86
2021/08/08 01:39:15;;;;;;;1.80;1.40;;;17.40;99.90;;;;;;9745349;30;20235;-86
2021/08/08 01:44:20;;;;;;;1.57;1.20;;;17.40;99.90;;;;;;9730570;30;20253;-86
2021/08/08 01:49:26;;;;;;;1.90;1.60;;;17.50;99.90;;;;;;9730167;30;20308;-86
2021/08/08 01:54:31;;;;;;;2.23;1.60;;;17.50;99.90;;;;;;9730223;30;20307;-86
2021/08/08 01:59:38;;;;;;;4.57;1.40;;;17.60;99.90;;;;;;9743865;30;20214;-85
2021/08/08 02:04:41;;;;;;;1.63;1.53;;;17.60;99.90;;;;;;9753077;30;20244;-86
2021/08/08 02:09:51;;;;;;;1.57;1.30;;;17.50;99.90;;;;;;9744787;30;20205;-86
2021/08/08 02:14:57;;;;;;;1.50;1.40;;;17.50;99.90;;;;;;9745567;30;20226;-86
2021/08/08 02:20:17;;;;;;;6.43;1.50;;;17.40;99.90;;;;;;9729304;30;20240;-87
2021/08/08 02:25:23;;;;;;;1.73;1.57;;;17.30;99.90;;;;;;9743553;30;20726;-86
2021/08/08 02:30:26;;;;;;;1.80;1.37;;;17.20;99.90;;;;;;9728980;30;20218;-86
2021/08/08 02:35:29;;;;;;;1.40;1.37;;;17.20;99.90;;;;;;9742830;30;20313;-86
2021/08/08 02:40:34;;;;;;;1.50;1.40;;;17.20;99.90;;;;;;9728965;30;20244;-86
2021/08/08 02:45:38;;;;;;;1.50;1.37;;;17.20;99.90;;;;;;9744892;30;20623;-86
2021/08/08 02:50:43;;;;;;;1.60;1.50;;;17.20;99.90;;;;;;9735273;30;20244;-86
2021/08/08 02:55:48;;;;;;;1.93;1.77;;;17.30;99.90;;;;;;9743238;30;20308;-86
2021/08/08 03:00:50;;;;;;;1.80;1.70;;;17.30;99.90;;;;;;9731618;30;20255;-85
2021/08/08 03:05:53;;;;;;;2.27;2.00;;;17.20;99.90;;;;;;9735842;30;20231;-86
2021/08/08 03:10:57;;;;;;;3.13;1.80;;;17.20;99.90;;;;;;9757170;30;20209;-86
2021/08/08 03:15:59;;;;;;;1.60;1.50;;;17.10;99.90;;;;;;9727787;30;20480;-86
2021/08/08 03:21:02;;;;;;;3.00;1.70;;;17.10;99.90;;;;;;9727870;30;20264;-86
2021/08/08 03:26:06;;;;;;;2.40;1.70;;;17.00;99.90;;;;;;9728540;30;20299;-86
2021/08/08 03:31:13;;;;;;;1.90;1.57;;;17.00;99.90;;;;;;9728100;30;20213;-86
2021/08/08 03:36:15;;;;;;;1.97;1.83;;;16.90;99.90;;;;;;9728123;30;20233;-86
2021/08/08 03:41:19;;;;;;;1.80;1.57;;;16.90;99.90;;;;;;9742389;30;20233;-86
2021/08/08 03:46:23;;;;;;;1.93;1.83;;;16.90;99.90;;;;;;9741333;30;20221;-86
2021/08/08 03:51:26;;;;;;;2.47;1.83;;;16.90;99.90;;;;;;9727684;30;20304;-86
2021/08/08 03:56:32;;;;;;;2.60;1.80;;;16.80;99.90;;;;;;9726745;30;20245;-86
2021/08/08 04:01:35;;;;;;;2.70;2.47;;;16.80;99.90;;;;;;9726835;30;20243;-86
2021/08/08 04:06:37;;;;;;;2.20;2.00;;;16.80;99.90;;;;;;9726977;30;20320;-87
2021/08/08 04:11:41;;;;;;;2.00;1.90;;;16.80;99.90;;;;;;9727998;30;20280;-86
2021/08/08 04:16:43;;;;;;;8.67;1.87;;;16.80;99.90;;;;;;9733128;30;20264;-86
2021/08/08 04:21:46;;;;;;;2.83;2.03;;;16.80;99.90;;;;;;9747527;30;20225;-86
2021/08/08 04:26:50;;;;;;;1.97;1.87;;;16.80;99.90;;;;;;9747550;30;20244;-86
2021/08/08 04:31:53;;;;;;;3.30;1.80;;;16.80;99.90;;;;;;9733257;30;20264;-86
2021/08/08 04:36:56;;;;;;;4.50;2.23;;;16.80;99.90;;;;;;9733462;30;20256;-86
2021/08/08 04:42:01;;;;;;;1.93;1.80;;;16.80;99.90;;;;;;9756485;30;20237;-86
2021/08/08 04:47:05;;;;;;;3.70;1.93;;;16.70;99.90;;;;;;9750607;30;20205;-86
2021/08/08 04:52:07;;;;;;;3.27;1.80;;;16.70;99.90;;;;;;9754532;30;20205;-86
2021/08/08 04:57:11;;;;;;;2.00;1.87;;;16.70;99.90;;;;;;9731618;30;20222;-86
2021/08/08 05:02:20;;;;;;;2.07;1.97;;;16.70;99.90;;;;;;9731683;30;20248;-86
2021/08/08 05:07:23;;;;;;;3.00;2.23;;;16.70;99.90;;;;;;9732605;30;20308;-86
2021/08/08 05:12:27;;;;;;;2.73;2.03;;;16.80;99.90;;;;;;9746331;30;20316;-85
2021/08/08 05:17:31;;;;;;;2.20;2.00;;;16.80;99.90;;;;;;9745948;30;20213;-86
2021/08/08 05:22:37;;;;;;;2.00;1.60;;;16.80;99.90;;;;;;9732806;30;20268;-86
2021/08/08 07:40:17;;;;;;;3.47;1.90;;;19.20;99.90;;;;;;9675151;30;20242;-84
2021/08/08 07:45:21;;;;;;;3.17;1.90;;;19.50;99.90;;;;;;9706566;30;20257;-84
2021/08/08 07:50:24;;;;;;;3.03;1.63;;;19.80;99.90;;;;;;9723063;30;20210;-84
2021/08/08 07:55:29;;;;;;;5.77;1.60;;;20.10;99.90;;;;;;9721711;30;20241;-84
2021/08/08 08:00:32;;;;;;;3.73;1.80;;;20.40;99.90;;;;;;9709457;30;20703;-84
2021/08/08 08:05:39;;;;;;;1.87;1.77;;;20.60;99.90;;;;;;9719701;30;20230;-84
2021/08/08 08:10:43;;;;;;;2.50;2.10;;;20.80;99.90;;;;;;9722876;30;20234;-84
2021/08/08 08:15:45;;;;;;;2.40;1.63;;;21.00;99.90;;;;;;9710518;30;20252;-84
2021/08/08 08:20:48;;;;;;;2.43;2.20;;;21.40;99.90;;;;;;9725967;30;20226;-84
2021/08/08 08:25:51;;;;;;;2.90;2.27;;;21.70;99.90;;;;;;9730592;30;20272;-84
2021/08/08 08:30:54;;;;;;;1.60;1.50;;;22.30;99.90;;;;;;9722422;30;20210;-84
2021/08/08 08:35:56;;;;;;;2.30;1.80;;;22.80;99.90;;;;;;9698778;30;20751;-84
2021/08/08 08:41:03;;;;;;;2.20;1.90;;;23.50;99.90;;;;;;9699162;30;20230;-85
2021/08/08 08:46:06;;;;;;;2.60;2.27;;;23.80;99.90;;;;;;9720298;30;20236;-85
2021/08/08 08:51:09;;;;;;;1.70;1.60;;;24.40;99.90;;;;;;9750660;30;20671;-85
2021/08/08 08:56:13;;;;;;;2.33;1.70;;;24.70;99.90;;;;;;9728282;30;20240;-83
2021/08/08 09:01:18;;;;;;;2.67;2.00;;;24.80;99.90;;;;;;9742691;30;20242;-84
2021/08/08 09:06:20;;;;;;;2.07;1.87;;;24.40;99.90;;;;;;9748355;30;20241;-83
2021/08/08 09:11:24;;;;;;;2.03;1.93;;;23.90;99.90;;;;;;9751472;30;20957;-83
2021/08/08 09:16:27;;;;;;;2.17;1.93;;;23.50;99.90;;;;;;9736020;30;20489;-83
2021/08/08 09:21:34;;;;;;;1.83;1.73;;;23.50;99.90;;;;;;9735161;30;20225;-83
2021/08/08 09:26:39;;;;;;;2.10;1.90;;;23.70;99.90;;;;;;9749355;30;20267;-83
2021/08/08 09:31:55;;;;;;;1.93;1.83;;;23.70;99.90;;;;;;9755943;30;20221;-84
2021/08/08 09:37:01;;;;;;;2.20;1.80;;;24.00;99.90;;;;;;9745494;30;20302;-84
2021/08/08 09:42:09;;;;;;;2.20;2.00;;;24.40;99.90;;;;;;9720113;30;20536;-84
2021/08/08 09:47:11;;;;;;;2.93;2.30;;;24.60;99.90;;;;;;9748973;30;20346;-84
2021/08/08 09:52:22;;;;;;;2.20;2.10;;;24.80;99.90;;;;;;9756349;30;20269;-86
2021/08/08 09:57:25;;;;;;;5.60;2.33;;;25.00;99.90;;;;;;9726063;30;20221;-84
2021/08/08 10:02:27;;;;;;;2.77;2.37;;;25.20;99.90;;;;;;9744546;30;20234;-84
2021/08/08 10:07:30;;;;;;;2.33;1.97;;;25.40;99.90;;;;;;9735309;30;20214;-84
2021/08/08 10:12:54;;;;;;;3.43;1.70;;;25.50;98.20;;;;;;9715107;30;20230;-82
2021/08/08 10:18:01;;;;;;;3.47;2.50;;;25.40;97.10;;;;;;9717304;30;20206;-84
2021/08/08 10:23:04;;;;;;;4.00;2.40;;;25.20;99.40;;;;;;9720373;30;20302;-83
2021/08/08 10:28:09;;;;;;;2.23;2.03;;;25.10;98.20;;;;;;9741147;30;20222;-82
2021/08/08 10:33:12;;;;;;;2.03;1.90;;;25.00;98.60;;;;;;9709276;30;20324;-83
2021/08/08 10:38:16;;;;;;;2.00;1.90;;;24.90;99.00;;;;;;9724571;30;20215;-82
2021/08/08 10:43:28;;;;;;;2.70;2.10;;;24.60;98.70;;;;;;9725047;30;20237;-82
2021/08/08 10:48:34;;;;;;;3.90;2.00;;;24.20;95.10;;;;;;9740545;30;20221;-82
2021/08/08 10:53:36;;;;;;;2.10;2.00;;;23.90;99.10;;;;;;9749385;30;20232;-82
2021/08/08 10:58:47;;;;;;;2.30;2.20;;;23.60;95.40;;;;;;9780334;30;20682;-82
2021/08/08 11:03:54;;;;;;;2.20;2.10;;;23.50;98.20;;;;;;9760782;30;20972;-82
2021/08/08 11:08:59;;;;;;;2.30;2.10;;;23.20;97.60;;;;;;9758104;30;20263;-81
2021/08/08 11:14:11;;;;;;;2.37;2.17;;;22.90;97.40;;;;;;9759117;30;20233;-82
2021/08/08 11:19:15;;;;;;;2.73;2.63;;;22.70;99.20;;;;;;9758705;30;20699;-81
2021/08/08 11:24:17;;;;;;;2.57;2.37;;;22.70;99.90;;;;;;9759715;30;20263;-82
2021/08/08 11:29:26;;;;;;;2.90;2.60;;;22.70;99.90;;;;;;9769536;25;20241;-83
2021/08/08 11:34:30;;;;;;;2.60;2.40;;;22.80;99.90;;;;;;9753431;30;20217;-84
2021/08/08 11:39:37;;;;;;;3.03;2.03;;;22.90;96.40;;;;;;9756358;30;20291;-83
2021/08/08 11:44:42;;;;;;;2.40;2.30;;;22.90;97.10;;;;;;9746147;30;20216;-82
2021/08/08 11:49:45;;;;;;;2.23;2.13;;;22.90;97.60;;;;;;9730940;30;20256;-82
2021/08/08 11:54:48;;;;;;;2.60;2.40;;;23.00;98.80;;;;;;9732770;30;20339;-82
2021/08/08 11:59:52;;;;;;;2.27;2.17;;;23.10;98.00;;;;;;9712973;30;20603;-82
2021/08/08 12:04:55;;;;;;;2.53;1.93;;;23.20;99.30;;;;;;9715106;30;20312;-83
2021/08/08 12:10:02;;;;;;;2.27;2.10;;;23.30;98.50;;;;;;9721480;30;20317;-82
2021/08/08 12:15:08;;;;;;;2.13;2.03;;;23.30;97.80;;;;;;9721260;30;20225;-82
2021/08/08 12:20:12;;;;;;;2.03;1.80;;;23.00;95.10;;;;;;9735049;30;20248;-82
2021/08/08 12:25:16;;;;;;;2.20;2.07;;;22.70;95.20;;;;;;9706893;30;20253;-82
2021/08/08 12:30:22;;;;;;;2.30;2.20;;;22.60;94.30;;;;;;9704852;30;20333;-82
2021/08/08 12:35:25;;;;;;;2.30;2.20;;;22.30;91.70;;;;;;9722089;30;20747;-81
2021/08/08 12:40:27;;;;;;;2.43;2.00;;;22.00;93.60;;;;;;9744067;30;20225;-82
2021/08/08 12:45:36;;;;;;;2.07;1.90;;;21.90;94.80;;;;;;9760855;30;20221;-82
2021/08/08 12:50:40;;;;;;;2.60;2.40;;;21.90;95.90;;;;;;9734354;30;20239;-82
2021/08/08 12:55:45;;;;;;;3.37;2.17;;;21.90;96.30;;;;;;9763196;30;20209;-82
2021/08/08 13:00:48;;;;;;;2.93;2.40;;;21.80;98.10;;;;;;9762885;30;20655;-82
2021/08/08 13:05:51;;;;;;;2.67;2.50;;;21.60;98.80;;;;;;9762503;30;20573;-82
2021/08/08 13:10:53;;;;;;;2.33;2.20;;;21.50;96.00;;;;;;9732127;30;20324;-82
2021/08/08 13:15:56;;;;;;;2.47;2.37;;;21.50;99.90;;;;;;9748325;30;20221;-82
2021/08/08 13:21:01;;;;;;;2.63;2.43;;;21.50;96.90;;;;;;9745866;30;20238;-83
2021/08/08 13:26:05;;;;;;;2.47;2.27;;;21.60;97.10;;;;;;9760964;30;20205;-83
2021/08/08 13:31:09;;;;;;;2.50;2.30;;;21.70;99.90;;;;;;9694292;30;1078224;-83
2021/08/08 13:36:11;;;;;;;2.50;2.30;;;21.90;96.30;;;;;;9731584;30;20210;-83
2021/08/08 13:41:19;;;;;;;2.87;2.40;;;22.20;97.20;;;;;;9749632;30;20579;-83
2021/08/08 13:46:23;;;;;;;4.70;2.40;;;22.10;99.90;;;;;;9788231;30;20270;-82
2021/08/08 13:51:25;;;;;;;2.30;2.10;;;22.00;97.00;;;;;;9782456;30;20780;-83
2021/08/08 13:56:27;;;;;;;2.50;2.30;;;21.80;99.90;;;;;;9796458;30;20232;-83
2021/08/08 14:01:32;;;;;;;2.60;2.40;;;21.50;99.90;;;;;;9783253;30;20240;-83
2021/08/08 14:06:34;;;;;;;3.30;2.23;;;21.40;99.90;;;;;;9781791;30;20219;-83
2021/08/08 14:11:36;;;;;;;2.50;2.27;;;21.30;99.90;;;;;;9773575;30;20249;-83
2021/08/08 14:16:40;;;;;;;3.30;3.00;;;21.10;99.90;;;;;;9734044;30;20220;-82
2021/08/08 14:21:43;;;;;;;2.60;2.40;;;20.90;99.90;;;;;;9764783;30;20233;-83
2021/08/08 14:26:45;;;;;;;2.87;2.60;;;20.90;99.90;;;;;;9749645;30;20660;-83
2021/08/08 14:31:48;;;;;;;2.37;2.17;;;20.90;99.90;;;;;;9750227;30;20202;-82
2021/08/08 14:36:50;;;;;;;2.50;2.40;;;20.90;99.90;;;;;;9763617;30;20304;-83
2021/08/08 14:41:52;;;;;;;3.00;2.70;;;21.20;99.90;;;;;;9735433;30;20230;-83
2021/08/08 14:46:56;;;;;;;2.80;2.60;;;21.30;99.90;;;;;;9750045;30;20228;-82
2021/08/08 14:51:58;;;;;;;2.80;2.60;;;21.60;99.90;;;;;;9737043;30;20233;-82
2021/08/08 14:57:00;;;;;;;2.23;2.03;;;21.90;99.90;;;;;;9750831;30;20210;-82
2021/08/08 15:02:05;;;;;;;2.30;2.20;;;21.90;99.50;;;;;;9745610;30;20237;-83
2021/08/08 15:07:07;;;;;;;2.87;2.30;;;21.80;98.70;;;;;;9735204;30;20229;-83
2021/08/08 15:12:11;;;;;;;2.33;2.13;;;21.60;99.90;;;;;;9737365;30;20283;-83
2021/08/08 15:17:15;;;;;;;2.77;2.57;;;21.60;99.70;;;;;;9741839;30;20237;-81
2021/08/08 15:22:19;;;;;;;2.40;2.17;;;21.60;99.90;;;;;;9755907;30;20229;-83
2021/08/08 15:27:21;;;;;;;2.20;2.10;;;21.70;95.70;;;;;;9773951;30;20252;-80
2021/08/08 15:32:25;;;;;;;4.10;2.33;;;21.70;99.50;;;;;;9771298;30;20209;-81
2021/08/08 15:37:27;;;;;;;2.20;2.10;;;21.70;94.80;;;;;;9748787;30;20308;-81
2021/08/08 15:42:32;;;;;;;2.03;1.83;;;21.80;99.10;;;;;;9754978;30;20252;-81
2021/08/08 15:47:35;;;;;;;2.00;1.90;;;21.90;99.90;;;;;;9772335;30;20255;-81
2021/08/08 15:52:38;;;;;;;1.93;1.83;;;21.90;97.50;;;;;;9771226;30;20202;-81
2021/08/08 15:57:40;;;;;;;2.20;2.10;;;21.80;96.60;;;;;;9757024;30;20229;-81
2021/08/08 16:02:43;;;;;;;2.60;2.40;;;21.90;96.50;;;;;;9771667;30;20225;-81
2021/08/08 16:07:48;;;;;;;2.93;2.57;;;21.90;96.30;;;;;;9754124;30;20304;-81
2021/08/08 16:12:50;;;;;;;2.17;1.97;;;21.80;96.30;;;;;;9780123;30;20241;-81
2021/08/08 16:17:54;;;;;;;2.33;2.23;;;21.70;96.50;;;;;;9760192;30;20229;-81
2021/08/08 16:22:56;;;;;;;2.67;2.40;;;21.60;98.30;;;;;;9744664;30;20908;-81
2021/08/08 16:28:00;;;;;;;2.70;2.50;;;21.60;97.00;;;;;;9777212;30;20301;-81
2021/08/08 16:33:03;;;;;;;2.97;2.57;;;21.60;99.40;;;;;;9778398;30;20273;-80
2021/08/08 16:38:05;;;;;;;2.63;2.40;;;21.50;99.90;;;;;;9748004;30;20240;-81
2021/08/08 16:43:07;;;;;;;2.37;2.00;;;21.40;98.90;;;;;;9778556;30;20598;-81
2021/08/08 16:48:11;;;;;;;2.70;2.50;;;21.30;94.90;;;;;;9777806;30;20332;-80
2021/08/08 16:53:13;;;;;;;2.17;1.97;;;21.20;98.10;;;;;;9777857;30;20222;-80
2021/08/08 16:58:15;;;;;;;2.50;2.30;;;21.10;95.10;;;;;;9757145;30;20317;-80
2021/08/08 17:03:18;;;;;;;2.37;2.17;;;21.10;97.90;;;;;;9746776;30;20262;-80
2021/08/08 17:08:20;;;;;;;2.63;2.43;;;21.00;99.90;;;;;;9760934;30;20249;-80
2021/08/08 17:13:23;;;;;;;2.37;2.27;;;20.90;99.90;;;;;;9767961;30;20661;-80
2021/08/08 17:18:26;;;;;;;1.93;1.83;;;20.90;99.90;;;;;;9739892;30;20270;-80
2021/08/08 17:23:28;;;;;;;2.30;2.10;;;20.80;99.90;;;;;;9742555;30;20228;-80
2021/08/08 17:28:32;;;;;;;2.03;1.93;;;20.80;99.90;;;;;;9763889;25;20241;-81
2021/08/08 17:33:35;;;;;;;2.20;2.10;;;20.80;99.90;;;;;;9732535;30;20218;-80
2021/08/08 17:38:37;;;;;;;1.93;1.83;;;20.70;99.90;;;;;;9744575;30;20260;-83
2021/08/08 17:43:40;;;;;;;2.60;2.50;;;20.70;99.90;;;;;;9707060;30;20249;-84
2021/08/08 17:48:43;;;;;;;2.90;2.40;;;20.60;99.90;;;;;;9710925;30;20307;-82
2021/08/08 17:53:45;;;;;;;2.70;2.30;;;20.60;99.90;;;;;;9728259;30;20233;-83
2021/08/08 17:58:49;;;;;;;2.50;2.33;;;20.70;99.90;;;;;;9749455;30;20327;-83
2021/08/08 18:03:52;;;;;;;2.10;2.00;;;20.70;99.90;;;;;;9727867;30;20241;-83
2021/08/08 18:08:55;;;;;;;2.20;2.10;;;20.60;99.90;;;;;;9800193;30;20241;-83
2021/08/08 18:13:58;;;;;;;2.10;1.90;;;20.50;99.90;;;;;;9772488;30;20216;-84
2021/08/08 18:19:01;;;;;;;2.00;1.90;;;20.40;99.90;;;;;;9773439;30;20319;-83
2021/08/08 18:24:04;;;;;;;2.73;2.43;;;20.30;99.40;;;;;;9752573;30;20221;-83
2021/08/08 18:29:06;;;;;;;1.90;1.80;;;20.30;98.80;;;;;;9751501;30;20245;-83
2021/08/08 18:34:11;;;;;;;1.90;1.80;;;20.20;99.90;;;;;;9765817;30;20205;-84
2021/08/08 18:39:13;;;;;;;2.37;2.27;;;20.10;99.90;;;;;;9748897;30;20785;-82
2021/08/08 18:44:15;;;;;;;1.97;1.87;;;20.10;99.90;;;;;;9745471;30;21114;-82
2021/08/08 18:49:18;;;;;;;3.60;3.30;;;20.00;99.90;;;;;;9715241;30;20240;-82
2021/08/08 18:54:21;;;;;;;5.80;2.10;;;19.90;99.90;;;;;;9711414;30;20202;-81
2021/08/08 18:59:23;;;;;;;2.63;2.40;;;19.80;99.90;;;;;;9726399;30;20240;-80
2021/08/08 19:04:26;;;;;;;4.13;2.50;;;19.70;99.90;;;;;;9727944;30;20214;-80
2021/08/08 19:09:28;;;;;;;2.43;2.13;;;19.50;99.90;;;;;;9723624;30;20230;-81
2021/08/08 19:14:30;;;;;;;7.20;2.60;;;19.40;99.90;;;;;;9726282;30;20659;-81
2021/08/08 19:19:34;;;;;;;3.90;2.70;;;19.30;99.90;;;;;;9712798;30;21016;-81
2021/08/08 19:24:36;;;;;;;5.53;2.70;;;19.10;99.90;;;;;;9700900;30;20281;-81
2021/08/08 19:29:38;;;;;;;2.30;2.17;;;18.90;99.90;;;;;;9727190;30;20263;-82
2021/08/08 19:34:44;;;;;;;2.57;2.30;;;18.80;99.90;;;;;;9705572;30;20574;-81
2021/08/08 19:39:46;;;;;;;2.67;2.40;;;18.70;99.90;;;;;;9713687;30;20236;-82
2021/08/08 19:44:48;;;;;;;3.53;2.53;;;18.60;99.90;;;;;;9759706;30;20241;-81
2021/08/08 19:49:52;;;;;;;2.90;2.70;;;18.50;99.90;;;;;;9738770;30;20237;-81
2021/08/08 19:54:54;;;;;;;4.77;3.17;;;18.30;99.90;;;;;;9754162;30;20209;-81
2021/08/08 19:59:56;;;;;;;2.90;2.40;;;18.20;99.90;;;;;;9744424;30;20246;-82
2021/08/08 20:04:59;;;;;;;2.80;2.60;;;18.20;99.90;;;;;;9719548;30;20232;-80
2021/08/08 20:10:01;;;;;;;3.67;2.60;;;18.10;99.90;;;;;;9719433;30;20607;-81
2021/08/08 20:15:04;;;;;;;3.13;2.83;;;18.10;99.90;;;;;;9720420;30;20210;-82
2021/08/08 20:20:09;;;;;;;5.23;2.77;;;18.10;99.90;;;;;;9736286;30;20716;-82
2021/08/08 20:25:16;;;;;;;3.43;2.67;;;18.10;99.90;;;;;;9720799;30;20740;-82
2021/08/08 20:30:20;;;;;;;4.33;3.27;;;18.10;99.90;;;;;;9761227;30;20248;-80
2021/08/08 20:35:24;;;;;;;3.50;2.70;;;18.00;99.90;;;;;;9766193;30;20232;-80
2021/08/08 20:40:26;;;;;;;5.97;4.33;;;17.90;99.90;;;;;;9787579;30;20260;-82
2021/08/08 20:45:28;;;;;;;3.87;3.50;;;17.90;99.90;;;;;;9797456;30;20221;-82
2021/08/08 20:50:32;;;;;;;5.73;3.10;;;17.90;99.90;;;;;;9784574;30;20239;-81
2021/08/08 20:55:34;;;;;;;3.10;2.90;;;17.90;99.90;;;;;;9769865;30;20220;-81
2021/08/08 21:00:36;;;;;;;2.93;2.73;;;17.80;99.90;;;;;;9787171;30;20243;-80
2021/08/08 21:05:40;;;;;;;2.90;2.70;;;17.80;99.90;;;;;;9781638;30;20220;-83
2021/08/08 21:10:42;;;;;;;3.40;3.10;;;17.70;99.90;;;;;;9765308;30;20229;-80
2021/08/08 21:15:44;;;;;;;3.20;2.90;;;17.70;99.90;;;;;;9763273;30;20227;-80
2021/08/08 21:20:47;;;;;;;3.50;3.20;;;17.70;99.90;;;;;;9790004;30;20611;-81
2021/08/08 21:25:50;;;;;;;3.30;3.00;;;17.70;99.90;;;;;;9789686;30;20225;-81
2021/08/08 21:30:52;;;;;;;3.33;3.03;;;17.70;99.90;;;;;;9785470;30;20248;-81
2021/08/08 21:35:55;;;;;;;3.17;2.60;;;17.70;99.90;;;;;;9757510;30;20684;-81
2021/08/08 21:40:58;;;;;;;3.03;2.83;;;17.60;99.90;;;;;;9759806;30;20237;-81
2021/08/08 21:46:00;;;;;;;3.60;2.87;;;17.60;99.90;;;;;;9741713;30;20229;-82
2021/08/08 21:51:04;;;;;;;3.43;3.07;;;17.60;99.90;;;;;;9750750;30;20705;-81
2021/08/08 21:56:06;;;;;;;3.20;2.97;;;17.60;99.90;;;;;;9769283;30;20205;-81
2021/08/08 22:01:08;;;;;;;3.30;3.10;;;17.60;99.90;;;;;;9748840;30;20601;-81
2021/08/08 22:06:12;;;;;;;2.73;2.53;;;17.60;99.90;;;;;;9764584;30;20268;-82
2021/08/08 22:11:14;;;;;;;3.10;2.90;;;17.60;99.90;;;;;;9738348;30;20671;-81
2021/08/08 22:16:16;;;;;;;3.97;3.00;;;17.60;99.90;;;;;;9794077;30;20209;-80
2021/08/08 22:21:19;;;;;;;3.20;3.00;;;17.70;99.90;;;;;;9791822;30;20241;-81
2021/08/08 22:26:22;;;;;;;3.37;3.07;;;17.70;99.90;;;;;;9781438;30;20221;-81
2021/08/08 22:31:24;;;;;;;4.77;2.97;;;17.70;99.90;;;;;;9769326;30;20237;-82
2021/08/08 22:36:27;;;;;;;4.23;3.20;;;17.70;99.90;;;;;;9746206;30;20216;-82
2021/08/08 22:41:29;;;;;;;3.77;3.10;;;17.70;99.90;;;;;;9798304;30;20782;-82
2021/08/08 22:46:31;;;;;;;5.73;3.00;;;17.70;99.90;;;;;;9767816;30;20245;-82
2021/08/08 22:51:35;;;;;;;6.57;3.73;;;17.70;99.90;;;;;;9750088;30;20248;-82
2021/08/08 22:56:37;;;;;;;3.47;3.27;;;17.70;99.90;;;;;;9762412;30;20214;-82
2021/08/08 23:01:39;;;;;;;2.80;2.60;;;17.70;99.90;;;;;;9748038;30;20786;-80
2021/08/08 23:06:43;;;;;;;2.97;2.70;;;17.70;99.90;;;;;;9763801;30;20224;-80
2021/08/08 23:11:45;;;;;;;2.93;2.73;;;17.60;99.90;;;;;;9766168;30;20241;-81
2021/08/08 23:16:47;;;;;;;4.37;2.50;;;17.60;99.90;;;;;;9793444;30;20216;-81
2021/08/08 23:21:50;;;;;;;2.90;2.73;;;17.60;99.90;;;;;;9738782;30;20704;-81
2021/08/08 23:26:52;;;;;;;2.60;2.40;;;17.50;99.90;;;;;;9775128;30;20598;-81
2021/08/08 23:31:55;;;;;;;2.77;2.50;;;17.50;99.90;;;;;;9802619;30;20236;-82
2021/08/08 23:36:58;;;;;;;2.47;2.27;;;17.40;99.90;;;;;;9757895;30;20205;-82
2021/08/08 23:42:00;;;;;;;3.83;2.50;;;17.40;99.90;;;;;;9801244;30;20734;-81
2021/08/08 23:47:03;;;;;;;4.87;2.90;;;17.30;99.90;;;;;;9767979;30;21080;-82
2021/08/08 23:52:07;;;;;;;2.33;2.23;;;17.30;99.90;;;;;;9792580;30;20688;-82
2021/08/08 23:57:09;;;;;;;3.23;2.80;;;17.30;99.90;;;;;;9792339;30;20640;-81
